sensor_id;sensor_type;location;lat;lon;timestamp;P1;durP1;ratioP1;P2;durP2;ratioP2
23682;SDS011;24897;53.514;10.482;2023-06-22T00:01:10;43.30;;;38.60;;
23682;SDS011;24897;53.514;10.482;2023-06-22T00:03:54;44.77;;;39.87;;
23682;SDS011;24897;53.514;10.482;2023-06-22T00:06:38;42.80;;;38.20;;
23682;SDS011;24897;53.514;10.482;2023-06-22T00:09:26;43.53;;;38.83;;
23682;SDS011;24897;53.514;10.482;2023-06-22T00:12:10;44.37;;;38.77;;
23682;SDS011;24897;53.514;10.482;2023-06-22T00:14:54;43.77;;;39.07;;
23682;SDS011;24897;53.514;10.482;2023-06-22T00:17:38;44.60;;;39.73;;
23682;SDS011;24897;53.514;10.482;2023-06-22T00:20:22;44.07;;;39.37;;
23682;SDS011;24897;53.514;10.482;2023-06-22T00:23:11;43.00;;;38.43;;
23682;SDS011;24897;53.514;10.482;2023-06-22T00:25:55;44.17;;;38.43;;
23682;SDS011;24897;53.514;10.482;2023-06-22T00:28:39;45.30;;;40.50;;
23682;SDS011;24897;53.514;10.482;2023-06-22T00:31:23;45.67;;;40.77;;
23682;SDS011;24897;53.514;10.482;2023-06-22T00:34:07;45.70;;;40.80;;
23682;SDS011;24897;53.514;10.482;2023-06-22T00:36:52;43.77;;;38.93;;
23682;SDS011;24897;53.514;10.482;2023-06-22T00:39:36;43.43;;;38.40;;
23682;SDS011;24897;53.514;10.482;2023-06-22T00:42:20;43.33;;;38.63;;
23682;SDS011;24897;53.514;10.482;2023-06-22T00:45:05;41.83;;;37.33;;
23682;SDS011;24897;53.514;10.482;2023-06-22T00:47:51;41.37;;;36.87;;
23682;SDS011;24897;53.514;10.482;2023-06-22T00:50:36;43.47;;;37.40;;
23682;SDS011;24897;53.514;10.482;2023-06-22T00:53:20;42.27;;;37.60;;
23682;SDS011;24897;53.514;10.482;2023-06-22T00:56:05;46.13;;;37.27;;
23682;SDS011;24897;53.514;10.482;2023-06-22T00:58:50;42.47;;;37.87;;
23682;SDS011;24897;53.514;10.482;2023-06-22T01:01:36;43.23;;;38.10;;
23682;SDS011;24897;53.514;10.482;2023-06-22T01:04:33;44.27;;;39.47;;
23682;SDS011;24897;53.514;10.482;2023-06-22T01:13:21;43.13;;;37.67;;
23682;SDS011;24897;53.514;10.482;2023-06-22T01:22:01;44.33;;;39.03;;
23682;SDS011;24897;53.514;10.482;2023-06-22T01:27:56;43.87;;;38.23;;
23682;SDS011;24897;53.514;10.482;2023-06-22T01:30:58;42.70;;;37.63;;
23682;SDS011;24897;53.514;10.482;2023-06-22T01:33:50;43.90;;;38.67;;
23682;SDS011;24897;53.514;10.482;2023-06-22T01:36:37;44.33;;;39.43;;
23682;SDS011;24897;53.514;10.482;2023-06-22T01:39:22;44.27;;;39.17;;
23682;SDS011;24897;53.514;10.482;2023-06-22T01:42:07;45.30;;;39.80;;
23682;SDS011;24897;53.514;10.482;2023-06-22T01:44:54;43.63;;;38.00;;
23682;SDS011;24897;53.514;10.482;2023-06-22T01:47:40;45.77;;;39.70;;
23682;SDS011;24897;53.514;10.482;2023-06-22T01:50:25;44.93;;;39.30;;
23682;SDS011;24897;53.514;10.482;2023-06-22T01:53:10;45.80;;;40.20;;
23682;SDS011;24897;53.514;10.482;2023-06-22T01:55:54;45.63;;;38.30;;
23682;SDS011;24897;53.514;10.482;2023-06-22T01:58:41;46.20;;;41.10;;
23682;SDS011;24897;53.514;10.482;2023-06-22T02:01:40;44.63;;;39.63;;
23682;SDS011;24897;53.514;10.482;2023-06-22T02:04:48;44.77;;;39.67;;
23682;SDS011;24897;53.514;10.482;2023-06-22T02:08:27;44.33;;;38.30;;
23682;SDS011;24897;53.514;10.482;2023-06-22T02:10:53;46.00;;;38.70;;
23682;SDS011;24897;53.514;10.482;2023-06-22T02:13:39;43.47;;;37.73;;
23682;SDS011;24897;53.514;10.482;2023-06-22T02:16:27;44.40;;;38.47;;
23682;SDS011;24897;53.514;10.482;2023-06-22T02:19:14;43.97;;;38.77;;
23682;SDS011;24897;53.514;10.482;2023-06-22T02:21:59;45.03;;;39.23;;
23682;SDS011;24897;53.514;10.482;2023-06-22T02:24:43;45.03;;;39.77;;
23682;SDS011;24897;53.514;10.482;2023-06-22T02:27:27;46.17;;;39.70;;
23682;SDS011;24897;53.514;10.482;2023-06-22T02:30:12;46.27;;;40.70;;
23682;SDS011;24897;53.514;10.482;2023-06-22T02:32:58;46.37;;;39.37;;
23682;SDS011;24897;53.514;10.482;2023-06-22T02:35:42;46.57;;;40.80;;
23682;SDS011;24897;53.514;10.482;2023-06-22T02:38:31;46.47;;;40.53;;
23682;SDS011;24897;53.514;10.482;2023-06-22T02:41:20;46.83;;;40.50;;
23682;SDS011;24897;53.514;10.482;2023-06-22T02:44:04;48.77;;;42.50;;
23682;SDS011;24897;53.514;10.482;2023-06-22T02:46:48;47.97;;;42.27;;
23682;SDS011;24897;53.514;10.482;2023-06-22T02:49:33;46.50;;;40.67;;
23682;SDS011;24897;53.514;10.482;2023-06-22T02:52:17;45.93;;;40.07;;
23682;SDS011;24897;53.514;10.482;2023-06-22T02:55:01;48.30;;;43.00;;
23682;SDS011;24897;53.514;10.482;2023-06-22T02:57:46;47.17;;;42.07;;
23682;SDS011;24897;53.514;10.482;2023-06-22T03:00:31;47.43;;;42.23;;
23682;SDS011;24897;53.514;10.482;2023-06-22T03:03:16;48.90;;;41.80;;
23682;SDS011;24897;53.514;10.482;2023-06-22T03:05:59;46.60;;;41.23;;
23682;SDS011;24897;53.514;10.482;2023-06-22T03:08:47;47.30;;;42.17;;
23682;SDS011;24897;53.514;10.482;2023-06-22T03:11:31;47.90;;;42.67;;
23682;SDS011;24897;53.514;10.482;2023-06-22T03:14:16;46.70;;;41.60;;
23682;SDS011;24897;53.514;10.482;2023-06-22T03:17:00;48.73;;;40.73;;
23682;SDS011;24897;53.514;10.482;2023-06-22T03:19:46;47.47;;;41.90;;
23682;SDS011;24897;53.514;10.482;2023-06-22T03:22:31;46.70;;;40.37;;
23682;SDS011;24897;53.514;10.482;2023-06-22T03:25:15;45.87;;;40.87;;
23682;SDS011;24897;53.514;10.482;2023-06-22T03:27:59;45.77;;;40.73;;
23682;SDS011;24897;53.514;10.482;2023-06-22T03:30:44;45.27;;;40.27;;
23682;SDS011;24897;53.514;10.482;2023-06-22T03:33:28;45.03;;;40.03;;
23682;SDS011;24897;53.514;10.482;2023-06-22T03:36:13;47.03;;;40.37;;
23682;SDS011;24897;53.514;10.482;2023-06-22T03:38:57;42.87;;;38.00;;
23682;SDS011;24897;53.514;10.482;2023-06-22T03:41:41;42.13;;;37.00;;
23682;SDS011;24897;53.514;10.482;2023-06-22T03:44:25;42.10;;;37.60;;
23682;SDS011;24897;53.514;10.482;2023-06-22T03:47:09;41.23;;;36.73;;
23682;SDS011;24897;53.514;10.482;2023-06-22T03:49:54;38.77;;;34.57;;
23682;SDS011;24897;53.514;10.482;2023-06-22T03:52:38;41.70;;;36.50;;
23682;SDS011;24897;53.514;10.482;2023-06-22T03:55:23;40.33;;;34.83;;
23682;SDS011;24897;53.514;10.482;2023-06-22T03:58:08;35.53;;;31.40;;
23682;SDS011;24897;53.514;10.482;2023-06-22T04:00:53;35.00;;;31.20;;
23682;SDS011;24897;53.514;10.482;2023-06-22T04:03:38;34.53;;;30.73;;
23682;SDS011;24897;53.514;10.482;2023-06-22T04:06:22;35.23;;;31.53;;
23682;SDS011;24897;53.514;10.482;2023-06-22T04:09:07;36.27;;;32.47;;
23682;SDS011;24897;53.514;10.482;2023-06-22T04:11:51;39.00;;;35.10;;
23682;SDS011;24897;53.514;10.482;2023-06-22T04:14:35;83.60;;;77.10;;
23682;SDS011;24897;53.514;10.482;2023-06-22T04:17:19;83.13;;;76.53;;
23682;SDS011;24897;53.514;10.482;2023-06-22T04:20:04;75.03;;;69.13;;
23682;SDS011;24897;53.514;10.482;2023-06-22T04:22:49;70.13;;;64.73;;
23682;SDS011;24897;53.514;10.482;2023-06-22T04:25:33;69.57;;;64.37;;
23682;SDS011;24897;53.514;10.482;2023-06-22T04:28:17;66.47;;;61.40;;
23682;SDS011;24897;53.514;10.482;2023-06-22T04:31:02;71.33;;;66.30;;
23682;SDS011;24897;53.514;10.482;2023-06-22T04:33:46;65.67;;;60.97;;
23682;SDS011;24897;53.514;10.482;2023-06-22T04:36:32;59.47;;;55.17;;
23682;SDS011;24897;53.514;10.482;2023-06-22T04:39:21;57.90;;;53.80;;
23682;SDS011;24897;53.514;10.482;2023-06-22T04:42:06;62.93;;;58.43;;
23682;SDS011;24897;53.514;10.482;2023-06-22T04:44:50;66.43;;;61.73;;
23682;SDS011;24897;53.514;10.482;2023-06-22T04:47:35;69.00;;;64.00;;
23682;SDS011;24897;53.514;10.482;2023-06-22T04:50:23;69.00;;;63.80;;
23682;SDS011;24897;53.514;10.482;2023-06-22T04:53:07;68.40;;;63.20;;
23682;SDS011;24897;53.514;10.482;2023-06-22T04:55:53;65.77;;;61.07;;
23682;SDS011;24897;53.514;10.482;2023-06-22T04:58:38;37.30;;;33.93;;
23682;SDS011;24897;53.514;10.482;2023-06-22T05:01:22;33.67;;;30.83;;
23682;SDS011;24897;53.514;10.482;2023-06-22T05:04:07;32.33;;;29.63;;
23682;SDS011;24897;53.514;10.482;2023-06-22T05:06:52;30.77;;;28.17;;
23682;SDS011;24897;53.514;10.482;2023-06-22T05:09:37;30.87;;;27.80;;
23682;SDS011;24897;53.514;10.482;2023-06-22T05:12:22;27.63;;;25.23;;
23682;SDS011;24897;53.514;10.482;2023-06-22T05:15:06;24.70;;;22.53;;
23682;SDS011;24897;53.514;10.482;2023-06-22T05:17:51;22.80;;;20.90;;
23682;SDS011;24897;53.514;10.482;2023-06-22T05:20:36;21.73;;;19.98;;
23682;SDS011;24897;53.514;10.482;2023-06-22T05:23:20;22.80;;;20.60;;
23682;SDS011;24897;53.514;10.482;2023-06-22T05:26:04;23.77;;;21.55;;
23682;SDS011;24897;53.514;10.482;2023-06-22T05:28:48;23.33;;;21.42;;
23682;SDS011;24897;53.514;10.482;2023-06-22T05:31:33;23.85;;;21.67;;
23682;SDS011;24897;53.514;10.482;2023-06-22T05:34:18;21.75;;;19.85;;
23682;SDS011;24897;53.514;10.482;2023-06-22T05:37:02;23.13;;;21.05;;
23682;SDS011;24897;53.514;10.482;2023-06-22T05:39:47;24.20;;;22.00;;
23682;SDS011;24897;53.514;10.482;2023-06-22T05:42:31;24.45;;;22.13;;
23682;SDS011;24897;53.514;10.482;2023-06-22T05:45:15;24.40;;;22.13;;
23682;SDS011;24897;53.514;10.482;2023-06-22T05:47:59;24.55;;;22.38;;
23682;SDS011;24897;53.514;10.482;2023-06-22T05:50:44;24.30;;;22.30;;
23682;SDS011;24897;53.514;10.482;2023-06-22T05:53:28;24.65;;;22.35;;
23682;SDS011;24897;53.514;10.482;2023-06-22T05:56:13;22.85;;;20.70;;
23682;SDS011;24897;53.514;10.482;2023-06-22T05:58:57;23.30;;;21.20;;
23682;SDS011;24897;53.514;10.482;2023-06-22T06:01:42;23.67;;;21.60;;
23682;SDS011;24897;53.514;10.482;2023-06-22T06:04:26;22.98;;;20.98;;
23682;SDS011;24897;53.514;10.482;2023-06-22T06:07:12;23.70;;;21.65;;
23682;SDS011;24897;53.514;10.482;2023-06-22T06:09:56;20.98;;;19.15;;
23682;SDS011;24897;53.514;10.482;2023-06-22T06:12:40;19.55;;;17.92;;
23682;SDS011;24897;53.514;10.482;2023-06-22T06:15:24;19.30;;;17.67;;
23682;SDS011;24897;53.514;10.482;2023-06-22T06:18:09;19.98;;;18.17;;
23682;SDS011;24897;53.514;10.482;2023-06-22T06:20:53;19.02;;;17.42;;
23682;SDS011;24897;53.514;10.482;2023-06-22T06:23:37;19.00;;;17.50;;
23682;SDS011;24897;53.514;10.482;2023-06-22T06:26:21;18.17;;;16.67;;
23682;SDS011;24897;53.514;10.482;2023-06-22T06:29:11;18.77;;;16.88;;
23682;SDS011;24897;53.514;10.482;2023-06-22T06:31:55;18.90;;;17.25;;
23682;SDS011;24897;53.514;10.482;2023-06-22T06:34:40;18.88;;;17.38;;
23682;SDS011;24897;53.514;10.482;2023-06-22T06:37:24;18.52;;;17.02;;
23682;SDS011;24897;53.514;10.482;2023-06-22T06:40:09;18.45;;;16.95;;
23682;SDS011;24897;53.514;10.482;2023-06-22T06:42:54;17.77;;;16.38;;
23682;SDS011;24897;53.514;10.482;2023-06-22T06:45:39;18.88;;;17.33;;
23682;SDS011;24897;53.514;10.482;2023-06-22T06:48:23;19.85;;;17.98;;
23682;SDS011;24897;53.514;10.482;2023-06-22T06:51:07;19.42;;;17.83;;
23682;SDS011;24897;53.514;10.482;2023-06-22T06:53:52;19.60;;;18.08;;
23682;SDS011;24897;53.514;10.482;2023-06-22T06:56:36;19.25;;;17.55;;
23682;SDS011;24897;53.514;10.482;2023-06-22T06:59:20;18.67;;;17.10;;
23682;SDS011;24897;53.514;10.482;2023-06-22T07:02:05;20.00;;;18.20;;
23682;SDS011;24897;53.514;10.482;2023-06-22T07:04:49;18.30;;;16.80;;
23682;SDS011;24897;53.514;10.482;2023-06-22T07:07:34;17.90;;;16.50;;
23682;SDS011;24897;53.514;10.482;2023-06-22T07:10:18;18.77;;;17.20;;
23682;SDS011;24897;53.514;10.482;2023-06-22T07:13:02;18.65;;;17.23;;
23682;SDS011;24897;53.514;10.482;2023-06-22T07:15:46;19.20;;;17.55;;
23682;SDS011;24897;53.514;10.482;2023-06-22T07:18:31;18.80;;;17.17;;
23682;SDS011;24897;53.514;10.482;2023-06-22T07:21:15;18.08;;;16.52;;
23682;SDS011;24897;53.514;10.482;2023-06-22T07:23:59;18.17;;;16.55;;
23682;SDS011;24897;53.514;10.482;2023-06-22T07:26:43;18.20;;;16.70;;
23682;SDS011;24897;53.514;10.482;2023-06-22T07:29:29;17.95;;;16.55;;
23682;SDS011;24897;53.514;10.482;2023-06-22T07:32:13;18.30;;;16.80;;
23682;SDS011;24897;53.514;10.482;2023-06-22T07:34:58;18.42;;;16.83;;
23682;SDS011;24897;53.514;10.482;2023-06-22T07:37:42;18.67;;;17.17;;
23682;SDS011;24897;53.514;10.482;2023-06-22T07:40:26;17.83;;;16.40;;
23682;SDS011;24897;53.514;10.482;2023-06-22T07:43:10;17.80;;;16.40;;
23682;SDS011;24897;53.514;10.482;2023-06-22T07:45:55;18.63;;;17.02;;
23682;SDS011;24897;53.514;10.482;2023-06-22T07:48:39;17.95;;;16.45;;
23682;SDS011;24897;53.514;10.482;2023-06-22T07:51:25;19.60;;;17.98;;
23682;SDS011;24897;53.514;10.482;2023-06-22T07:54:09;20.13;;;18.35;;
23682;SDS011;24897;53.514;10.482;2023-06-22T07:56:54;18.77;;;17.27;;
23682;SDS011;24897;53.514;10.482;2023-06-22T07:59:38;18.60;;;17.00;;
23682;SDS011;24897;53.514;10.482;2023-06-22T08:02:22;18.98;;;17.48;;
23682;SDS011;24897;53.514;10.482;2023-06-22T08:05:06;18.20;;;16.70;;
23682;SDS011;24897;53.514;10.482;2023-06-22T08:07:52;18.98;;;17.38;;
23682;SDS011;24897;53.514;10.482;2023-06-22T08:10:37;19.35;;;17.73;;
23682;SDS011;24897;53.514;10.482;2023-06-22T08:13:21;18.35;;;16.85;;
23682;SDS011;24897;53.514;10.482;2023-06-22T08:16:05;18.83;;;17.00;;
23682;SDS011;24897;53.514;10.482;2023-06-22T08:18:51;18.13;;;16.70;;
23682;SDS011;24897;53.514;10.482;2023-06-22T08:21:36;18.55;;;16.90;;
23682;SDS011;24897;53.514;10.482;2023-06-22T08:24:21;19.08;;;17.58;;
23682;SDS011;24897;53.514;10.482;2023-06-22T08:27:07;19.00;;;17.40;;
23682;SDS011;24897;53.514;10.482;2023-06-22T08:29:55;18.50;;;16.90;;
23682;SDS011;24897;53.514;10.482;2023-06-22T08:32:42;17.90;;;16.50;;
23682;SDS011;24897;53.514;10.482;2023-06-22T08:35:26;17.42;;;16.02;;
23682;SDS011;24897;53.514;10.482;2023-06-22T08:38:10;17.48;;;16.08;;
23682;SDS011;24897;53.514;10.482;2023-06-22T08:40:59;18.10;;;16.63;;
23682;SDS011;24897;53.514;10.482;2023-06-22T08:43:44;16.95;;;15.65;;
23682;SDS011;24897;53.514;10.482;2023-06-22T08:46:28;17.40;;;16.10;;
23682;SDS011;24897;53.514;10.482;2023-06-22T08:49:17;18.10;;;16.48;;
23682;SDS011;24897;53.514;10.482;2023-06-22T08:52:00;17.58;;;16.13;;
23682;SDS011;24897;53.514;10.482;2023-06-22T08:54:45;18.65;;;17.15;;
23682;SDS011;24897;53.514;10.482;2023-06-22T08:57:30;17.98;;;16.52;;
23682;SDS011;24897;53.514;10.482;2023-06-22T09:00:16;18.17;;;16.65;;
23682;SDS011;24897;53.514;10.482;2023-06-22T09:03:03;18.17;;;16.77;;
23682;SDS011;24897;53.514;10.482;2023-06-22T09:05:48;17.40;;;16.08;;
23682;SDS011;24897;53.514;10.482;2023-06-22T09:08:32;18.63;;;17.13;;
23682;SDS011;24897;53.514;10.482;2023-06-22T09:11:16;18.77;;;17.25;;
23682;SDS011;24897;53.514;10.482;2023-06-22T09:14:00;17.80;;;16.35;;
23682;SDS011;24897;53.514;10.482;2023-06-22T09:16:44;17.73;;;16.23;;
23682;SDS011;24897;53.514;10.482;2023-06-22T09:19:28;18.38;;;16.65;;
23682;SDS011;24897;53.514;10.482;2023-06-22T09:22:12;18.95;;;17.38;;
23682;SDS011;24897;53.514;10.482;2023-06-22T09:24:58;19.20;;;17.60;;
23682;SDS011;24897;53.514;10.482;2023-06-22T09:27:43;18.90;;;17.20;;
23682;SDS011;24897;53.514;10.482;2023-06-22T09:30:27;18.65;;;17.05;;
23682;SDS011;24897;53.514;10.482;2023-06-22T09:33:11;19.50;;;17.70;;
23682;SDS011;24897;53.514;10.482;2023-06-22T09:35:55;19.52;;;17.63;;
23682;SDS011;24897;53.514;10.482;2023-06-22T09:38:39;18.80;;;17.20;;
23682;SDS011;24897;53.514;10.482;2023-06-22T09:41:24;17.98;;;16.48;;
23682;SDS011;24897;53.514;10.482;2023-06-22T09:44:08;18.15;;;16.63;;
23682;SDS011;24897;53.514;10.482;2023-06-22T09:46:53;19.35;;;17.85;;
23682;SDS011;24897;53.514;10.482;2023-06-22T09:49:37;18.60;;;17.13;;
23682;SDS011;24897;53.514;10.482;2023-06-22T09:52:21;18.95;;;17.52;;
23682;SDS011;24897;53.514;10.482;2023-06-22T09:55:05;18.48;;;16.98;;
23682;SDS011;24897;53.514;10.482;2023-06-22T09:57:50;19.85;;;18.17;;
23682;SDS011;24897;53.514;10.482;2023-06-22T10:00:34;20.50;;;18.60;;
23682;SDS011;24897;53.514;10.482;2023-06-22T10:03:18;20.38;;;18.67;;
23682;SDS011;24897;53.514;10.482;2023-06-22T10:06:02;20.85;;;19.15;;
23682;SDS011;24897;53.514;10.482;2023-06-22T10:08:47;21.25;;;19.45;;
23682;SDS011;24897;53.514;10.482;2023-06-22T10:11:34;19.65;;;18.05;;
23682;SDS011;24897;53.514;10.482;2023-06-22T10:14:19;19.50;;;17.92;;
23682;SDS011;24897;53.514;10.482;2023-06-22T10:17:03;19.38;;;17.88;;
23682;SDS011;24897;53.514;10.482;2023-06-22T10:19:47;19.23;;;17.75;;
23682;SDS011;24897;53.514;10.482;2023-06-22T10:22:32;19.75;;;18.15;;
23682;SDS011;24897;53.514;10.482;2023-06-22T10:25:16;18.85;;;17.38;;
23682;SDS011;24897;53.514;10.482;2023-06-22T10:28:00;19.80;;;18.15;;
23682;SDS011;24897;53.514;10.482;2023-06-22T10:30:44;19.77;;;18.15;;
23682;SDS011;24897;53.514;10.482;2023-06-22T10:33:28;20.25;;;18.65;;
23682;SDS011;24897;53.514;10.482;2023-06-22T10:36:12;20.40;;;18.65;;
23682;SDS011;24897;53.514;10.482;2023-06-22T10:38:56;20.10;;;18.50;;
23682;SDS011;24897;53.514;10.482;2023-06-22T10:41:42;19.73;;;18.10;;
23682;SDS011;24897;53.514;10.482;2023-06-22T10:44:27;19.88;;;18.27;;
23682;SDS011;24897;53.514;10.482;2023-06-22T10:47:11;20.40;;;18.70;;
23682;SDS011;24897;53.514;10.482;2023-06-22T10:49:55;20.17;;;18.58;;
23682;SDS011;24897;53.514;10.482;2023-06-22T10:52:40;19.65;;;17.95;;
23682;SDS011;24897;53.514;10.482;2023-06-22T10:55:27;19.67;;;17.98;;
23682;SDS011;24897;53.514;10.482;2023-06-22T10:58:11;19.58;;;17.90;;
23682;SDS011;24897;53.514;10.482;2023-06-22T11:00:55;19.65;;;18.15;;
23682;SDS011;24897;53.514;10.482;2023-06-22T11:03:40;19.63;;;18.10;;
23682;SDS011;24897;53.514;10.482;2023-06-22T11:06:24;20.73;;;19.05;;
23682;SDS011;24897;53.514;10.482;2023-06-22T11:09:08;21.05;;;19.35;;
23682;SDS011;24897;53.514;10.482;2023-06-22T11:11:52;21.13;;;19.38;;
23682;SDS011;24897;53.514;10.482;2023-06-22T11:14:38;20.63;;;19.02;;
23682;SDS011;24897;53.514;10.482;2023-06-22T11:17:22;20.05;;;18.48;;
23682;SDS011;24897;53.514;10.482;2023-06-22T11:20:07;21.10;;;18.95;;
23682;SDS011;24897;53.514;10.482;2023-06-22T11:22:54;19.73;;;18.23;;
23682;SDS011;24897;53.514;10.482;2023-06-22T11:25:39;18.98;;;17.40;;
23682;SDS011;24897;53.514;10.482;2023-06-22T11:28:25;19.17;;;17.67;;
23682;SDS011;24897;53.514;10.482;2023-06-22T11:31:11;20.40;;;18.58;;
23682;SDS011;24897;53.514;10.482;2023-06-22T11:33:55;20.52;;;18.85;;
23682;SDS011;24897;53.514;10.482;2023-06-22T11:36:39;20.30;;;18.70;;
23682;SDS011;24897;53.514;10.482;2023-06-22T11:39:24;19.83;;;18.13;;
23682;SDS011;24897;53.514;10.482;2023-06-22T11:42:08;20.77;;;18.77;;
23682;SDS011;24897;53.514;10.482;2023-06-22T11:44:53;20.67;;;19.08;;
23682;SDS011;24897;53.514;10.482;2023-06-22T11:47:37;19.27;;;17.52;;
23682;SDS011;24897;53.514;10.482;2023-06-22T11:50:22;19.80;;;18.30;;
23682;SDS011;24897;53.514;10.482;2023-06-22T11:53:07;18.73;;;17.17;;
23682;SDS011;24897;53.514;10.482;2023-06-22T11:55:51;20.20;;;18.50;;
23682;SDS011;24897;53.514;10.482;2023-06-22T11:58:37;19.88;;;18.13;;
23682;SDS011;24897;53.514;10.482;2023-06-22T12:01:21;20.13;;;18.52;;
23682;SDS011;24897;53.514;10.482;2023-06-22T12:04:06;21.15;;;19.35;;
23682;SDS011;24897;53.514;10.482;2023-06-22T12:06:50;19.30;;;17.80;;
23682;SDS011;24897;53.514;10.482;2023-06-22T12:09:34;20.08;;;18.40;;
23682;SDS011;24897;53.514;10.482;2023-06-22T12:12:18;18.60;;;17.00;;
23682;SDS011;24897;53.514;10.482;2023-06-22T12:15:02;19.38;;;17.77;;
23682;SDS011;24897;53.514;10.482;2023-06-22T12:17:47;19.60;;;18.10;;
23682;SDS011;24897;53.514;10.482;2023-06-22T12:20:31;19.38;;;17.88;;
23682;SDS011;24897;53.514;10.482;2023-06-22T12:23:15;19.73;;;18.13;;
23682;SDS011;24897;53.514;10.482;2023-06-22T12:25:59;19.40;;;17.80;;
23682;SDS011;24897;53.514;10.482;2023-06-22T12:28:45;19.65;;;18.13;;
23682;SDS011;24897;53.514;10.482;2023-06-22T12:31:29;20.52;;;18.85;;
23682;SDS011;24897;53.514;10.482;2023-06-22T12:34:13;19.88;;;18.08;;
23682;SDS011;24897;53.514;10.482;2023-06-22T12:36:57;20.23;;;18.55;;
23682;SDS011;24897;53.514;10.482;2023-06-22T12:39:41;20.27;;;18.67;;
23682;SDS011;24897;53.514;10.482;2023-06-22T12:42:26;20.65;;;18.95;;
23682;SDS011;24897;53.514;10.482;2023-06-22T12:45:12;19.63;;;18.02;;
23682;SDS011;24897;53.514;10.482;2023-06-22T12:47:56;20.23;;;18.42;;
23682;SDS011;24897;53.514;10.482;2023-06-22T12:50:40;20.80;;;19.02;;
23682;SDS011;24897;53.514;10.482;2023-06-22T12:53:24;19.58;;;18.08;;
23682;SDS011;24897;53.514;10.482;2023-06-22T12:56:10;19.55;;;18.05;;
23682;SDS011;24897;53.514;10.482;2023-06-22T12:58:54;20.50;;;18.80;;
23682;SDS011;24897;53.514;10.482;2023-06-22T13:01:39;20.23;;;18.52;;
23682;SDS011;24897;53.514;10.482;2023-06-22T13:04:23;19.92;;;18.23;;
23682;SDS011;24897;53.514;10.482;2023-06-22T13:07:07;20.23;;;18.50;;
23682;SDS011;24897;53.514;10.482;2023-06-22T13:09:51;20.70;;;19.08;;
23682;SDS011;24897;53.514;10.482;2023-06-22T13:12:36;20.40;;;18.77;;
23682;SDS011;24897;53.514;10.482;2023-06-22T13:15:20;21.30;;;19.50;;
23682;SDS011;24897;53.514;10.482;2023-06-22T13:18:04;20.45;;;18.75;;
23682;SDS011;24897;53.514;10.482;2023-06-22T13:20:48;20.48;;;18.73;;
23682;SDS011;24897;53.514;10.482;2023-06-22T13:23:32;19.75;;;18.15;;
23682;SDS011;24897;53.514;10.482;2023-06-22T13:26:17;20.48;;;18.67;;
23682;SDS011;24897;53.514;10.482;2023-06-22T13:29:01;19.67;;;18.08;;
23682;SDS011;24897;53.514;10.482;2023-06-22T13:31:45;20.50;;;18.90;;
23682;SDS011;24897;53.514;10.482;2023-06-22T13:34:29;20.50;;;18.80;;
23682;SDS011;24897;53.514;10.482;2023-06-22T13:37:13;19.95;;;18.40;;
23682;SDS011;24897;53.514;10.482;2023-06-22T13:39:57;19.88;;;18.17;;
23682;SDS011;24897;53.514;10.482;2023-06-22T13:42:42;20.10;;;18.33;;
23682;SDS011;24897;53.514;10.482;2023-06-22T13:45:27;20.70;;;19.00;;
23682;SDS011;24897;53.514;10.482;2023-06-22T13:48:11;20.02;;;18.33;;
23682;SDS011;24897;53.514;10.482;2023-06-22T13:50:55;20.60;;;18.90;;
23682;SDS011;24897;53.514;10.482;2023-06-22T13:53:39;20.08;;;18.40;;
23682;SDS011;24897;53.514;10.482;2023-06-22T13:56:23;20.05;;;18.55;;
23682;SDS011;24897;53.514;10.482;2023-06-22T13:59:07;20.23;;;18.63;;
23682;SDS011;24897;53.514;10.482;2023-06-22T14:01:53;20.30;;;18.65;;
23682;SDS011;24897;53.514;10.482;2023-06-22T14:04:37;20.58;;;18.98;;
23682;SDS011;24897;53.514;10.482;2023-06-22T14:07:21;20.13;;;18.45;;
23682;SDS011;24897;53.514;10.482;2023-06-22T14:10:06;21.00;;;19.08;;
23682;SDS011;24897;53.514;10.482;2023-06-22T14:12:50;19.90;;;18.15;;
23682;SDS011;24897;53.514;10.482;2023-06-22T14:15:36;19.77;;;17.98;;
23682;SDS011;24897;53.514;10.482;2023-06-22T14:18:20;20.27;;;18.45;;
23682;SDS011;24897;53.514;10.482;2023-06-22T14:21:06;20.20;;;18.50;;
23682;SDS011;24897;53.514;10.482;2023-06-22T14:23:51;19.73;;;18.08;;
23682;SDS011;24897;53.514;10.482;2023-06-22T14:26:36;20.55;;;18.85;;
23682;SDS011;24897;53.514;10.482;2023-06-22T14:29:20;20.42;;;18.63;;
23682;SDS011;24897;53.514;10.482;2023-06-22T14:32:05;20.05;;;18.50;;
23682;SDS011;24897;53.514;10.482;2023-06-22T14:34:50;20.70;;;18.90;;
23682;SDS011;24897;53.514;10.482;2023-06-22T14:37:34;19.90;;;18.30;;
23682;SDS011;24897;53.514;10.482;2023-06-22T14:40:18;20.60;;;19.00;;
23682;SDS011;24897;53.514;10.482;2023-06-22T14:43:03;20.10;;;18.40;;
23682;SDS011;24897;53.514;10.482;2023-06-22T14:45:47;20.40;;;18.80;;
23682;SDS011;24897;53.514;10.482;2023-06-22T14:48:31;20.98;;;18.98;;
23682;SDS011;24897;53.514;10.482;2023-06-22T14:51:15;20.33;;;18.67;;
23682;SDS011;24897;53.514;10.482;2023-06-22T14:54:00;20.55;;;18.80;;
23682;SDS011;24897;53.514;10.482;2023-06-22T14:56:44;19.30;;;17.70;;
23682;SDS011;24897;53.514;10.482;2023-06-22T14:59:29;19.73;;;18.02;;
23682;SDS011;24897;53.514;10.482;2023-06-22T15:02:13;19.05;;;17.52;;
23682;SDS011;24897;53.514;10.482;2023-06-22T15:04:57;19.65;;;18.00;;
23682;SDS011;24897;53.514;10.482;2023-06-22T15:07:41;19.83;;;18.23;;
23682;SDS011;24897;53.514;10.482;2023-06-22T15:10:25;20.33;;;18.63;;
23682;SDS011;24897;53.514;10.482;2023-06-22T15:13:09;19.42;;;17.80;;
23682;SDS011;24897;53.514;10.482;2023-06-22T15:15:54;19.88;;;18.20;;
23682;SDS011;24897;53.514;10.482;2023-06-22T15:18:38;22.40;;;20.08;;
23682;SDS011;24897;53.514;10.482;2023-06-22T15:21:24;20.85;;;18.95;;
23682;SDS011;24897;53.514;10.482;2023-06-22T15:24:09;21.02;;;19.17;;
23682;SDS011;24897;53.514;10.482;2023-06-22T15:26:54;20.02;;;18.42;;
23682;SDS011;24897;53.514;10.482;2023-06-22T15:29:39;20.15;;;18.60;;
23682;SDS011;24897;53.514;10.482;2023-06-22T15:32:23;18.98;;;17.52;;
23682;SDS011;24897;53.514;10.482;2023-06-22T15:35:07;19.75;;;18.08;;
23682;SDS011;24897;53.514;10.482;2023-06-22T15:37:51;19.40;;;17.90;;
23682;SDS011;24897;53.514;10.482;2023-06-22T15:40:36;19.42;;;17.85;;
23682;SDS011;24897;53.514;10.482;2023-06-22T15:43:20;19.40;;;17.77;;
23682;SDS011;24897;53.514;10.482;2023-06-22T15:46:04;19.52;;;17.85;;
23682;SDS011;24897;53.514;10.482;2023-06-22T15:48:48;18.63;;;17.13;;
23682;SDS011;24897;53.514;10.482;2023-06-22T15:51:32;19.75;;;18.02;;
23682;SDS011;24897;53.514;10.482;2023-06-22T15:54:16;18.45;;;16.88;;
23682;SDS011;24897;53.514;10.482;2023-06-22T15:57:00;18.40;;;16.90;;
23682;SDS011;24897;53.514;10.482;2023-06-22T15:59:44;18.25;;;16.63;;
23682;SDS011;24897;53.514;10.482;2023-06-22T16:02:29;17.45;;;16.00;;
23682;SDS011;24897;53.514;10.482;2023-06-22T16:05:13;17.92;;;16.33;;